Time;durP1;ratioP1;P1;durP2;ratioP2;P2;SDS_P1;SDS_P2;PMS_P1;PMS_P2;Temp;Humidity;BMP_temperature;BMP_pressure;BME280_temperature;BME280_humidity;BME280_pressure;Samples;Min_cycle;Max_cycle;Signal;HPM_P1;HPM_P2
2021/08/27 00:04:11;;;;;;;3.80;3.50;;;16.40;99.90;;;;;;10320856;23;20225;-83
2021/08/27 00:09:13;;;;;;;4.00;3.60;;;16.50;99.90;;;;;;10302762;28;20197;-83
2021/08/27 00:14:17;;;;;;;4.03;3.70;;;16.60;99.90;;;;;;10237554;28;20217;-83
2021/08/27 00:19:19;;;;;;;4.47;3.80;;;16.70;99.90;;;;;;10414416;28;20197;-84
2021/08/27 00:24:21;;;;;;;4.20;3.90;;;16.80;99.90;;;;;;10424915;28;20249;-83
2021/08/27 00:29:24;;;;;;;4.67;3.43;;;16.80;99.90;;;;;;10420642;28;20194;-83
2021/08/27 00:34:27;;;;;;;5.53;3.73;;;16.90;99.90;;;;;;10427653;28;20289;-83
2021/08/27 00:39:29;;;;;;;4.33;3.40;;;17.00;99.90;;;;;;10422002;28;20210;-83
2021/08/27 00:44:32;;;;;;;4.17;3.80;;;17.00;99.90;;;;;;10421047;28;20213;-83
2021/08/27 00:49:35;;;;;;;6.17;4.20;;;17.00;99.90;;;;;;10425029;28;20205;-83
2021/08/27 00:54:40;;;;;;;5.20;3.80;;;17.00;99.90;;;;;;10428037;28;20209;-84
2021/08/27 00:59:43;;;;;;;4.23;3.63;;;17.10;99.90;;;;;;10409344;28;20212;-84
2021/08/27 01:04:48;;;;;;;4.80;4.33;;;17.10;99.90;;;;;;10453486;28;20337;-84
2021/08/27 01:10:02;;;;;;;3.93;3.50;;;17.10;99.90;;;;;;10404639;28;20244;-83
2021/08/27 01:15:13;;;;;;;5.00;4.37;;;17.10;99.90;;;;;;10401561;28;20213;-83
2021/08/27 01:21:01;;;;;;;4.73;4.20;;;17.20;99.90;;;;;;10403171;28;20182;-83
2021/08/27 01:26:05;;;;;;;4.27;3.87;;;17.20;99.90;;;;;;10413729;28;20339;-84
2021/08/27 01:31:17;;;;;;;4.27;3.90;;;17.20;99.90;;;;;;10400223;28;20297;-83
2021/08/27 01:36:21;;;;;;;4.17;3.60;;;17.20;99.90;;;;;;10387976;28;20218;-84
2021/08/27 01:41:25;;;;;;;5.23;3.83;;;17.20;99.90;;;;;;10406577;28;20194;-84
2021/08/27 01:46:28;;;;;;;5.23;4.07;;;17.20;99.90;;;;;;10389671;28;20229;-84
2021/08/27 01:51:33;;;;;;;5.10;4.17;;;17.20;99.90;;;;;;10390036;28;20222;-84
2021/08/27 01:56:38;;;;;;;5.43;3.90;;;17.20;99.90;;;;;;10390261;28;20224;-84
2021/08/27 02:01:41;;;;;;;5.17;3.60;;;17.20;99.90;;;;;;10405413;28;20197;-84
2021/08/27 02:06:45;;;;;;;4.10;3.80;;;17.20;99.90;;;;;;10406914;28;20823;-84
2021/08/27 02:11:48;;;;;;;4.40;3.87;;;17.20;99.90;;;;;;10407980;28;20884;-84
2021/08/27 02:16:50;;;;;;;6.70;4.13;;;17.20;99.90;;;;;;10391107;28;20616;-83
2021/08/27 02:21:56;;;;;;;5.53;4.50;;;17.20;99.90;;;;;;10268260;28;20284;-84
2021/08/27 02:26:59;;;;;;;4.97;4.40;;;17.20;99.90;;;;;;10392472;28;20721;-84
2021/08/27 02:32:06;;;;;;;4.73;3.90;;;17.20;99.90;;;;;;10409313;28;20210;-83
2021/08/27 02:37:12;;;;;;;4.87;4.47;;;17.20;99.90;;;;;;10411477;28;20709;-83
2021/08/27 02:42:14;;;;;;;5.97;4.20;;;17.10;99.90;;;;;;10392327;28;20198;-84
2021/08/27 02:47:16;;;;;;;5.23;4.47;;;17.10;99.90;;;;;;10419524;28;20304;-83
2021/08/27 02:52:26;;;;;;;5.90;4.43;;;17.10;99.90;;;;;;10417371;28;20218;-83
2021/08/27 02:57:32;;;;;;;6.13;4.27;;;17.10;99.90;;;;;;10397770;28;20214;-83
2021/08/27 03:02:40;;;;;;;4.03;3.73;;;17.10;99.90;;;;;;10381835;28;20310;-83
2021/08/27 03:07:50;;;;;;;5.67;4.20;;;17.10;99.90;;;;;;10416189;28;20569;-83
2021/08/27 03:12:58;;;;;;;6.27;4.20;;;17.10;99.90;;;;;;10381119;28;20222;-83
2021/08/27 03:18:06;;;;;;;8.90;4.73;;;17.00;99.90;;;;;;10257640;28;20205;-83
2021/08/27 03:23:13;;;;;;;7.60;5.43;;;17.00;99.90;;;;;;10207880;28;20213;-83
2021/08/27 03:28:19;;;;;;;6.60;4.97;;;17.00;99.90;;;;;;10396977;28;20570;-83
2021/08/27 03:33:24;;;;;;;10.00;5.47;;;17.00;99.90;;;;;;10240049;28;20253;-83
2021/08/27 03:38:29;;;;;;;5.50;5.00;;;16.90;99.90;;;;;;10256314;28;20256;-83
2021/08/27 03:43:33;;;;;;;5.60;4.80;;;16.90;99.90;;;;;;10378558;28;20218;-83
2021/08/27 03:48:35;;;;;;;6.90;6.40;;;16.90;99.90;;;;;;10378722;28;20222;-83
2021/08/27 03:53:40;;;;;;;8.00;7.20;;;16.80;99.90;;;;;;10378633;28;20233;-83
2021/08/27 03:58:43;;;;;;;8.73;7.93;;;16.80;99.90;;;;;;10346685;28;20198;-84
2021/08/27 04:03:45;;;;;;;8.27;7.47;;;16.80;99.90;;;;;;10418010;28;20252;-83
2021/08/27 04:08:48;;;;;;;8.70;7.93;;;16.90;99.90;;;;;;10406826;28;20194;-83
2021/08/27 04:13:50;;;;;;;9.63;7.60;;;16.80;99.90;;;;;;10396559;28;20260;-83
2021/08/27 04:18:53;;;;;;;8.47;6.77;;;16.80;99.90;;;;;;10395431;28;20190;-83
2021/08/27 04:23:56;;;;;;;6.80;6.20;;;16.80;99.90;;;;;;10395179;28;20269;-84
2021/08/27 04:28:58;;;;;;;6.67;6.00;;;16.80;99.90;;;;;;10413009;28;20688;-83
2021/08/27 04:34:00;;;;;;;5.70;5.30;;;16.80;99.90;;;;;;10278992;28;20236;-83
2021/08/27 04:39:04;;;;;;;8.20;5.93;;;16.80;99.90;;;;;;10272134;28;20197;-83
2021/08/27 04:44:07;;;;;;;8.10;6.93;;;16.80;99.90;;;;;;10255348;28;20279;-83
2021/08/27 04:49:09;;;;;;;5.93;5.33;;;16.80;99.90;;;;;;10395520;28;20610;-83
2021/08/27 04:54:13;;;;;;;7.07;6.47;;;16.80;99.90;;;;;;10411957;28;20232;-83
2021/08/27 04:59:15;;;;;;;8.00;7.20;;;16.70;99.90;;;;;;10395539;28;20706;-83
2021/08/27 05:04:17;;;;;;;6.80;6.30;;;16.70;99.90;;;;;;10371457;28;20228;-83
2021/08/27 05:09:21;;;;;;;7.83;7.10;;;16.70;99.90;;;;;;10356300;28;20257;-83
2021/08/27 05:14:23;;;;;;;9.20;8.50;;;16.70;99.90;;;;;;10356317;28;20330;-84
2021/08/27 05:19:25;;;;;;;11.03;10.03;;;16.70;99.90;;;;;;10353760;28;20206;-84
2021/08/27 05:24:28;;;;;;;10.63;9.63;;;16.80;99.90;;;;;;10353354;28;20230;-84
2021/08/27 05:29:30;;;;;;;12.17;11.07;;;16.80;99.90;;;;;;10353414;28;20195;-83
2021/08/27 05:34:32;;;;;;;12.40;11.10;;;16.80;99.90;;;;;;10353746;28;20640;-83
2021/08/27 05:39:36;;;;;;;11.80;10.77;;;16.80;99.90;;;;;;10361502;28;20195;-83
2021/08/27 05:44:38;;;;;;;12.13;10.93;;;16.80;99.90;;;;;;10379488;28;20217;-84
2021/08/27 05:49:41;;;;;;;11.63;10.70;;;16.90;99.90;;;;;;10361494;28;20191;-84
2021/08/27 05:54:44;;;;;;;10.53;9.67;;;16.90;99.90;;;;;;10379473;28;20232;-84
2021/08/27 05:59:46;;;;;;;11.70;10.70;;;16.90;99.90;;;;;;10358283;28;20289;-84
2021/08/27 06:04:48;;;;;;;10.57;9.77;;;16.90;99.90;;;;;;10401252;22;20235;-82
2021/08/27 06:09:52;;;;;;;9.80;8.87;;;16.90;99.90;;;;;;10389084;28;20202;-82
2021/08/27 06:14:54;;;;;;;9.27;8.33;;;17.00;99.90;;;;;;10419003;28;20224;-82
2021/08/27 06:19:56;;;;;;;8.40;7.60;;;17.00;99.90;;;;;;10447374;28;20194;-82
2021/08/27 06:25:00;;;;;;;7.63;6.90;;;17.10;99.90;;;;;;10447077;28;20233;-82
2021/08/27 06:30:02;;;;;;;9.90;7.30;;;17.20;99.90;;;;;;10447303;28;20296;-83
2021/08/27 06:35:05;;;;;;;7.73;6.57;;;17.20;99.90;;;;;;10352974;28;20238;-82
2021/08/27 06:40:10;;;;;;;7.33;6.63;;;17.20;99.90;;;;;;10361910;28;20212;-82
2021/08/27 06:45:13;;;;;;;5.77;5.20;;;17.30;99.90;;;;;;10347088;28;20283;-82
2021/08/27 06:50:15;;;;;;;6.97;6.27;;;17.30;99.90;;;;;;10370287;28;20204;-82
2021/08/27 06:55:18;;;;;;;6.70;5.67;;;17.40;99.90;;;;;;10482590;28;20255;-83
2021/08/27 07:00:20;;;;;;;5.53;5.13;;;17.50;99.90;;;;;;10356644;28;20213;-83
2021/08/27 07:05:23;;;;;;;5.60;5.20;;;17.50;99.90;;;;;;10425495;28;20229;-83
2021/08/27 07:10:27;;;;;;;5.17;4.77;;;17.40;99.90;;;;;;10421489;28;20281;-83
2021/08/27 07:15:30;;;;;;;4.97;4.57;;;17.40;99.90;;;;;;10387179;28;20221;-82
2021/08/27 07:20:32;;;;;;;4.70;4.23;;;17.50;99.90;;;;;;10402544;28;20189;-83
2021/08/27 07:25:36;;;;;;;5.77;4.50;;;17.70;99.90;;;;;;10420345;28;20212;-83
2021/08/27 07:30:39;;;;;;;4.90;4.10;;;17.90;99.90;;;;;;10401477;28;20205;-83
2021/08/27 07:35:41;;;;;;;4.20;3.90;;;17.90;99.90;;;;;;10439407;28;20232;-82
2021/08/27 07:40:45;;;;;;;3.57;3.33;;;18.00;99.90;;;;;;10444192;28;20197;-83
2021/08/27 07:45:48;;;;;;;3.60;3.40;;;18.00;99.90;;;;;;10443618;28;20258;-83
2021/08/27 07:50:50;;;;;;;4.47;3.77;;;18.00;99.90;;;;;;10443008;28;20237;-82
2021/08/27 07:55:54;;;;;;;3.13;2.83;;;18.00;99.90;;;;;;10426715;28;20231;-83
2021/08/27 08:00:57;;;;;;;3.43;3.13;;;18.10;99.90;;;;;;10442465;28;20564;-83
2021/08/27 08:05:59;;;;;;;2.57;2.40;;;18.30;99.90;;;;;;10441373;28;20237;-82
2021/08/27 08:11:02;;;;;;;2.70;2.50;;;18.40;99.90;;;;;;10444617;28;20216;-82
2021/08/27 08:16:05;;;;;;;3.10;2.47;;;18.60;99.90;;;;;;10444278;28;20792;-82
2021/08/27 08:21:08;;;;;;;3.27;2.40;;;18.50;99.90;;;;;;10441755;28;20213;-83
2021/08/27 08:26:11;;;;;;;4.30;2.67;;;18.40;99.90;;;;;;10459105;28;20217;-82
2021/08/27 08:31:17;;;;;;;3.40;2.50;;;18.50;99.90;;;;;;10458762;28;20197;-82
2021/08/27 08:36:21;;;;;;;2.57;2.37;;;18.60;99.90;;;;;;10400132;28;20241;-82
2021/08/27 08:41:24;;;;;;;3.40;2.83;;;18.60;99.90;;;;;;10417501;28;20286;-82
2021/08/27 08:46:27;;;;;;;2.70;2.50;;;18.60;99.90;;;;;;10383826;28;20503;-82
2021/08/27 08:51:31;;;;;;;2.70;2.50;;;18.90;99.90;;;;;;10400406;28;20573;-82
2021/08/27 08:56:36;;;;;;;2.23;2.03;;;18.90;99.90;;;;;;10416184;28;20693;-83
2021/08/27 09:01:38;;;;;;;2.43;2.23;;;18.90;99.90;;;;;;10403063;28;20201;-83
2021/08/27 09:06:41;;;;;;;2.80;2.60;;;18.90;99.90;;;;;;10439856;28;20626;-83
2021/08/27 09:11:44;;;;;;;2.63;2.20;;;18.90;99.90;;;;;;10442631;28;20215;-83
2021/08/27 09:16:47;;;;;;;2.60;2.40;;;19.00;99.90;;;;;;10448381;28;20221;-83
2021/08/27 09:21:50;;;;;;;1.97;1.87;;;19.30;99.90;;;;;;10461868;28;20614;-83
2021/08/27 09:26:56;;;;;;;4.23;2.30;;;19.30;99.90;;;;;;10448784;28;20217;-83
2021/08/27 09:31:58;;;;;;;2.57;2.07;;;19.30;99.90;;;;;;10466456;28;20206;-83
2021/08/27 09:37:00;;;;;;;2.00;1.90;;;19.10;99.90;;;;;;10448542;28;20219;-83
2021/08/27 09:42:04;;;;;;;2.40;1.90;;;19.40;99.90;;;;;;10472542;28;20276;-82
2021/08/27 09:47:07;;;;;;;2.33;1.80;;;19.60;99.90;;;;;;10429631;28;20303;-83
2021/08/27 09:52:11;;;;;;;3.30;2.23;;;19.50;99.90;;;;;;10449507;28;20220;-82
2021/08/27 09:57:14;;;;;;;6.20;2.70;;;19.90;99.90;;;;;;10430543;28;20217;-83
2021/08/27 10:02:18;;;;;;;4.37;2.83;;;20.00;99.40;;;;;;10444623;28;20200;-83
2021/08/27 10:07:28;;;;;;;4.10;2.70;;;20.00;99.40;;;;;;10361569;28;20312;-83
2021/08/27 10:12:33;;;;;;;2.90;2.30;;;20.10;99.70;;;;;;10445409;28;20219;-82
2021/08/27 10:17:36;;;;;;;2.87;2.67;;;20.20;99.90;;;;;;10444677;28;20220;-83
2021/08/27 10:22:41;;;;;;;3.10;2.73;;;20.20;99.90;;;;;;10463556;28;20281;-82
2021/08/27 10:27:48;;;;;;;3.77;2.90;;;20.30;99.70;;;;;;10462753;28;20293;-82
2021/08/27 10:32:51;;;;;;;4.03;2.90;;;20.10;98.70;;;;;;10445039;28;20788;-82
2021/08/27 10:37:54;;;;;;;3.30;2.60;;;19.90;99.90;;;;;;10462562;28;20209;-82
2021/08/27 10:42:58;;;;;;;2.47;2.27;;;19.90;99.90;;;;;;10445885;28;20610;-82
2021/08/27 10:48:12;;;;;;;3.23;3.00;;;19.90;99.20;;;;;;10409647;28;20221;-83
2021/08/27 10:53:25;;;;;;;3.07;2.83;;;19.80;99.90;;;;;;10405792;28;20214;-82
2021/08/27 10:58:45;;;;;;;6.53;2.67;;;19.80;99.90;;;;;;10424999;28;20577;-82
2021/08/27 11:04:03;;;;;;;3.47;2.53;;;19.80;99.90;;;;;;10432282;28;20708;-83
2021/08/27 11:09:19;;;;;;;2.30;2.10;;;20.00;98.00;;;;;;10444450;28;20215;-83
2021/08/27 11:14:22;;;;;;;3.20;2.90;;;20.10;97.40;;;;;;10444627;28;20239;-83
2021/08/27 11:19:26;;;;;;;6.67;3.17;;;20.00;99.80;;;;;;10436794;28;20586;-83
2021/08/27 11:24:28;;;;;;;3.40;3.10;;;19.80;98.50;;;;;;10449448;28;20739;-83
2021/08/27 11:29:34;;;;;;;4.03;2.70;;;19.60;99.50;;;;;;10424768;28;20197;-83
2021/08/27 11:35:01;;;;;;;3.27;3.07;;;19.50;97.70;;;;;;10416530;28;20222;-83
2021/08/27 11:40:08;;;;;;;10.07;3.10;;;19.50;99.00;;;;;;10403802;28;20588;-83
2021/08/27 11:45:14;;;;;;;3.13;2.77;;;19.60;99.20;;;;;;10438187;28;20217;-83
2021/08/27 11:50:22;;;;;;;4.83;3.80;;;19.90;99.90;;;;;;10438038;28;20227;-83
2021/08/27 11:55:25;;;;;;;3.60;3.40;;;20.10;99.90;;;;;;10420727;28;20231;-83
2021/08/27 12:00:36;;;;;;;3.67;3.37;;;20.30;99.60;;;;;;10440424;28;20197;-83
2021/08/27 12:05:40;;;;;;;6.73;2.90;;;20.30;99.90;;;;;;10449339;28;20229;-82
2021/08/27 12:10:44;;;;;;;4.63;2.80;;;20.30;97.40;;;;;;10448390;28;20204;-83
2021/08/27 12:15:48;;;;;;;3.60;2.90;;;20.10;97.20;;;;;;10463774;28;20239;-83
2021/08/27 12:20:51;;;;;;;5.87;2.90;;;20.00;97.50;;;;;;10466805;28;20198;-83
2021/08/27 12:25:59;;;;;;;2.97;2.70;;;20.00;98.60;;;;;;10468907;28;20218;-83
2021/08/27 12:31:04;;;;;;;3.07;2.80;;;19.90;98.80;;;;;;10447362;28;20203;-82
2021/08/27 12:36:07;;;;;;;2.70;2.47;;;20.00;97.30;;;;;;10473376;28;20232;-82
2021/08/27 12:41:14;;;;;;;2.93;2.70;;;20.00;96.90;;;;;;10364303;28;20678;-82
2021/08/27 12:46:31;;;;;;;3.13;2.40;;;20.10;97.80;;;;;;10365163;28;20230;-82
2021/08/27 12:51:33;;;;;;;5.00;2.53;;;20.20;96.00;;;;;;10481162;28;20287;-83
2021/08/27 12:56:36;;;;;;;2.90;2.10;;;20.20;97.20;;;;;;10374014;28;20684;-82
2021/08/27 13:01:39;;;;;;;2.70;2.40;;;20.10;98.20;;;;;;10361823;28;20203;-82
2021/08/27 13:06:43;;;;;;;2.60;2.47;;;20.10;96.20;;;;;;10432771;28;20260;-82
2021/08/27 13:11:48;;;;;;;2.27;2.10;;;19.90;96.30;;;;;;10354652;28;20221;-82
2021/08/27 13:16:56;;;;;;;2.87;2.50;;;19.80;97.70;;;;;;10406127;28;20226;-82
2021/08/27 13:22:09;;;;;;;2.83;2.63;;;19.70;96.60;;;;;;10439272;28;20209;-82
2021/08/27 13:27:11;;;;;;;2.60;2.40;;;19.60;96.00;;;;;;10422855;28;20631;-82
2021/08/27 13:32:22;;;;;;;5.90;2.37;;;19.60;97.20;;;;;;10424784;28;20230;-82
2021/08/27 13:37:24;;;;;;;3.33;3.00;;;19.80;97.80;;;;;;10460247;28;20225;-82
2021/08/27 13:42:26;;;;;;;2.50;2.40;;;20.00;96.10;;;;;;10450945;28;20228;-82
2021/08/27 13:47:30;;;;;;;2.50;2.30;;;20.30;97.10;;;;;;10487470;28;20236;-82
2021/08/27 13:52:32;;;;;;;2.03;1.80;;;20.40;97.00;;;;;;10453293;28;20307;-82
2021/08/27 13:57:34;;;;;;;2.80;2.60;;;20.50;96.00;;;;;;10489337;28;20219;-82
2021/08/27 14:02:38;;;;;;;2.87;2.67;;;20.60;95.50;;;;;;10488826;28;20217;-82
2021/08/27 14:07:40;;;;;;;3.07;2.87;;;20.60;94.60;;;;;;10495523;28;20228;-82
2021/08/27 14:12:43;;;;;;;3.43;2.33;;;20.50;94.80;;;;;;10500179;28;20287;-83
2021/08/27 14:17:46;;;;;;;3.40;2.40;;;20.30;94.70;;;;;;10518043;28;20216;-82
2021/08/27 14:22:48;;;;;;;2.40;2.30;;;20.20;94.10;;;;;;10518881;28;20189;-82
2021/08/27 14:27:50;;;;;;;3.73;2.80;;;20.10;95.80;;;;;;10521319;28;20212;-82
2021/08/27 14:32:54;;;;;;;2.97;2.77;;;20.00;95.80;;;;;;10515270;28;20272;-81
2021/08/27 14:37:56;;;;;;;3.30;3.00;;;19.90;96.60;;;;;;10471156;28;20248;-82
2021/08/27 14:42:58;;;;;;;3.10;2.70;;;19.70;96.50;;;;;;10453426;28;20220;-81
2021/08/27 14:48:01;;;;;;;2.73;2.43;;;19.70;97.30;;;;;;10470451;28;20225;-82
2021/08/27 14:53:04;;;;;;;2.70;2.50;;;19.70;95.90;;;;;;10470768;28;20249;-82
2021/08/27 14:58:07;;;;;;;3.70;2.67;;;19.80;95.20;;;;;;10462827;28;20228;-82
2021/08/27 15:03:11;;;;;;;2.30;2.10;;;19.90;96.10;;;;;;10456413;28;20252;-81
2021/08/27 15:08:13;;;;;;;3.73;2.60;;;19.90;97.90;;;;;;10471106;28;20228;-81
2021/08/27 15:13:15;;;;;;;2.97;2.70;;;20.00;98.50;;;;;;10361928;28;20240;-83
2021/08/27 15:18:19;;;;;;;4.23;2.73;;;20.00;96.70;;;;;;10370889;28;20223;-82
2021/08/27 15:23:21;;;;;;;3.17;2.87;;;20.10;95.90;;;;;;10370040;28;20198;-81
2021/08/27 15:28:23;;;;;;;2.63;2.53;;;20.00;97.20;;;;;;10296493;28;20664;-81
2021/08/27 15:33:26;;;;;;;3.47;3.23;;;19.90;97.80;;;;;;10361905;28;20608;-81
2021/08/27 15:38:28;;;;;;;4.20;3.30;;;19.90;98.70;;;;;;10471022;28;20192;-81
2021/08/27 15:43:31;;;;;;;3.20;3.00;;;19.80;97.50;;;;;;10506747;28;20181;-81
2021/08/27 15:48:34;;;;;;;4.27;2.63;;;19.80;98.20;;;;;;10344902;28;20210;-82
2021/08/27 15:53:36;;;;;;;3.23;2.93;;;19.70;97.80;;;;;;10361911;28;20683;-82
2021/08/27 15:58:38;;;;;;;3.30;3.10;;;19.60;97.70;;;;;;10361648;28;20197;-82
2021/08/27 16:03:42;;;;;;;3.10;2.90;;;19.60;99.10;;;;;;10368801;28;20279;-81
2021/08/27 16:08:46;;;;;;;3.60;3.23;;;19.50;97.40;;;;;;10370221;28;20204;-82
2021/08/27 16:13:48;;;;;;;3.10;2.90;;;19.50;97.60;;;;;;10459865;28;20685;-82
2021/08/27 16:18:51;;;;;;;6.93;3.27;;;19.50;98.70;;;;;;10456852;28;20228;-82
2021/08/27 16:23:53;;;;;;;4.77;3.10;;;19.50;99.90;;;;;;10455457;28;20604;-82
2021/08/27 16:28:56;;;;;;;4.33;3.60;;;19.50;98.50;;;;;;10475254;28;20228;-82
2021/08/27 16:34:00;;;;;;;3.80;3.30;;;19.50;99.90;;;;;;10464084;28;20231;-81
2021/08/27 16:39:02;;;;;;;3.70;3.40;;;19.40;99.90;;;;;;10382831;28;20633;-82
2021/08/27 16:44:04;;;;;;;4.20;3.80;;;19.40;99.90;;;;;;10460446;28;20664;-82
2021/08/27 16:49:08;;;;;;;7.10;3.10;;;19.30;99.10;;;;;;10462632;28;20661;-82
2021/08/27 16:54:10;;;;;;;3.70;3.50;;;19.30;99.20;;;;;;10480422;28;20266;-82
2021/08/27 16:59:12;;;;;;;3.20;2.90;;;19.30;99.90;;;;;;10468841;28;20224;-82
2021/08/27 17:04:15;;;;;;;3.33;3.00;;;19.40;98.90;;;;;;10447421;28;20231;-82
2021/08/27 17:09:17;;;;;;;4.00;3.43;;;19.40;99.90;;;;;;10446031;28;20197;-82
2021/08/27 17:14:20;;;;;;;3.73;3.43;;;19.40;98.60;;;;;;10445104;28;20249;-82
2021/08/27 17:19:24;;;;;;;4.53;3.97;;;19.40;99.90;;;;;;10466215;28;20649;-82
2021/08/27 17:24:26;;;;;;;3.10;2.90;;;19.30;99.90;;;;;;10465192;28;20216;-82
2021/08/27 17:29:28;;;;;;;3.73;3.27;;;19.30;99.90;;;;;;10443352;28;20284;-82
2021/08/27 17:34:31;;;;;;;3.80;3.60;;;19.20;99.30;;;;;;10477598;28;20308;-82
2021/08/27 17:39:34;;;;;;;4.13;3.83;;;19.20;98.50;;;;;;10387923;28;20200;-82
2021/08/27 17:44:36;;;;;;;4.87;4.00;;;19.10;99.70;;;;;;10452496;28;20556;-82
2021/08/27 17:49:40;;;;;;;5.13;4.50;;;19.10;99.90;;;;;;10471342;28;20257;-82
2021/08/27 17:54:42;;;;;;;4.13;3.83;;;19.10;99.90;;;;;;10436475;28;20221;-82
2021/08/27 17:59:45;;;;;;;3.80;3.50;;;19.10;99.90;;;;;;10450184;28;20197;-82
2021/08/27 18:04:48;;;;;;;4.30;4.00;;;19.10;99.90;;;;;;10430415;28;20710;-82
2021/08/27 18:09:50;;;;;;;5.77;4.47;;;19.00;99.90;;;;;;10376234;28;20222;-82
2021/08/27 18:14:52;;;;;;;4.13;3.73;;;19.00;99.90;;;;;;10422638;28;20229;-82
2021/08/27 18:19:56;;;;;;;4.00;3.60;;;19.00;99.90;;;;;;10421927;28;20205;-82
2021/08/27 18:24:58;;;;;;;3.93;3.63;;;18.90;99.90;;;;;;10455988;28;20642;-82
2021/08/27 18:30:03;;;;;;;6.10;5.47;;;18.90;99.90;;;;;;10439774;28;20551;-82
2021/08/27 18:35:08;;;;;;;5.60;5.20;;;18.80;99.90;;;;;;10421285;28;20220;-82
2021/08/27 18:40:11;;;;;;;9.47;8.63;;;18.70;99.90;;;;;;10442116;28;20255;-82
2021/08/27 18:45:14;;;;;;;5.70;5.30;;;18.70;99.90;;;;;;10439926;28;20454;-82
2021/08/27 18:50:18;;;;;;;4.90;4.50;;;18.70;99.90;;;;;;10441011;28;20201;-82
2021/08/27 18:55:20;;;;;;;5.20;4.67;;;18.70;99.90;;;;;;10426831;28;20225;-82
2021/08/27 19:00:22;;;;;;;5.00;4.60;;;18.60;99.90;;;;;;10445839;28;20244;-82
2021/08/27 19:06:11;;;;;;;4.63;4.17;;;18.60;99.90;;;;;;10443303;28;20256;-82
2021/08/27 19:11:33;;;;;;;4.70;4.43;;;18.60;99.90;;;;;;10480954;28;20258;-82
2021/08/27 19:16:44;;;;;;;5.57;4.87;;;18.50;99.90;;;;;;10503256;28;20242;-83
2021/08/27 19:21:47;;;;;;;4.87;4.47;;;18.50;99.90;;;;;;10484755;28;20231;-83
2021/08/27 19:26:50;;;;;;;5.73;5.23;;;18.40;99.90;;;;;;10503135;28;20207;-83
2021/08/27 19:31:55;;;;;;;4.30;4.00;;;18.40;99.90;;;;;;10450606;28;20193;-82
2021/08/27 19:36:57;;;;;;;6.63;5.63;;;18.30;99.90;;;;;;10424578;28;20296;-82
2021/08/27 19:42:01;;;;;;;5.90;4.17;;;18.30;99.90;;;;;;10444195;28;20205;-83
2021/08/27 19:47:06;;;;;;;6.47;5.87;;;18.20;99.90;;;;;;10441685;28;20209;-83
2021/08/27 19:52:10;;;;;;;4.83;4.47;;;18.20;99.90;;;;;;10443004;28;20255;-83
2021/08/27 19:57:15;;;;;;;4.63;4.33;;;18.10;99.90;;;;;;10443431;28;20217;-83
2021/08/27 20:02:20;;;;;;;6.00;5.50;;;18.10;99.90;;;;;;10424120;28;20196;-82
2021/08/27 20:07:22;;;;;;;4.97;4.57;;;18.00;99.90;;;;;;10462836;28;20220;-82
2021/08/27 20:12:25;;;;;;;4.90;4.40;;;18.00;99.90;;;;;;10442057;28;20257;-82
2021/08/27 20:17:30;;;;;;;4.47;4.17;;;17.90;99.90;;;;;;10429051;28;20223;-83
2021/08/27 20:22:35;;;;;;;4.63;4.33;;;17.80;99.90;;;;;;10429759;28;20197;-82
2021/08/27 20:27:38;;;;;;;5.37;4.97;;;17.70;99.90;;;;;;10446889;28;20221;-82
2021/08/27 20:32:41;;;;;;;5.27;4.87;;;17.60;99.90;;;;;;10467642;28;20268;-83
2021/08/27 20:37:47;;;;;;;5.40;4.90;;;17.50;99.90;;;;;;10327024;28;20224;-83
2021/08/27 20:42:50;;;;;;;5.57;5.07;;;17.50;99.90;;;;;;10357792;28;20581;-83
2021/08/27 20:47:53;;;;;;;3.93;3.73;;;17.50;99.90;;;;;;10294429;28;20243;-83
2021/08/27 20:52:55;;;;;;;5.50;4.53;;;17.50;99.90;;;;;;10300675;28;20228;-83
2021/08/27 20:57:59;;;;;;;4.57;4.20;;;17.50;99.90;;;;;;10355876;28;20315;-83
2021/08/27 21:03:02;;;;;;;4.37;3.97;;;17.50;99.90;;;;;;10480997;28;20267;-82
2021/08/27 21:08:05;;;;;;;3.57;3.37;;;17.50;99.90;;;;;;10461740;28;20224;-82
2021/08/27 21:13:08;;;;;;;4.17;3.87;;;17.60;99.90;;;;;;10490935;28;20686;-82
2021/08/27 21:18:10;;;;;;;3.90;3.60;;;17.50;99.90;;;;;;10490766;28;20217;-82
2021/08/27 21:23:12;;;;;;;5.90;4.10;;;17.50;99.90;;;;;;10474149;28;20196;-83
2021/08/27 21:28:17;;;;;;;5.23;3.87;;;17.50;99.90;;;;;;10474767;28;20276;-83
2021/08/27 21:33:19;;;;;;;3.93;3.60;;;17.60;99.90;;;;;;10490908;28;20227;-83
2021/08/27 21:38:21;;;;;;;4.63;4.27;;;17.60;99.90;;;;;;10474077;28;20704;-83
2021/08/27 21:43:24;;;;;;;3.70;3.43;;;17.50;99.90;;;;;;10492686;28;20197;-83
2021/08/27 21:48:26;;;;;;;3.70;3.50;;;17.50;99.90;;;;;;10475543;28;20208;-83
2021/08/27 21:53:28;;;;;;;4.07;3.77;;;17.50;99.90;;;;;;10476219;28;20203;-83
2021/08/27 21:58:32;;;;;;;3.77;3.50;;;17.50;99.90;;;;;;10510248;28;20692;-82
2021/08/27 22:03:34;;;;;;;3.90;3.50;;;17.50;99.90;;;;;;10491660;28;20201;-83
2021/08/27 22:08:36;;;;;;;4.20;3.90;;;17.50;99.90;;;;;;10487033;28;20199;-83
2021/08/27 22:13:40;;;;;;;3.63;3.40;;;17.40;99.90;;;;;;10485472;28;20219;-83
2021/08/27 22:18:42;;;;;;;3.70;3.40;;;17.50;99.90;;;;;;10472436;28;20227;-82
2021/08/27 22:23:44;;;;;;;3.83;3.53;;;17.50;99.90;;;;;;10454183;28;20218;-82
2021/08/27 22:28:47;;;;;;;3.90;3.53;;;17.40;99.90;;;;;;10474514;28;20228;-83
2021/08/27 22:33:50;;;;;;;3.10;2.90;;;17.40;99.90;;;;;;10476778;28;20223;-83
2021/08/27 22:38:52;;;;;;;3.20;2.90;;;17.40;99.90;;;;;;10447178;28;20241;-83
2021/08/27 22:43:56;;;;;;;3.13;2.80;;;17.40;99.90;;;;;;10464194;28;20288;-83
2021/08/27 22:48:58;;;;;;;3.10;2.90;;;17.30;99.90;;;;;;10447452;28;20261;-83
2021/08/27 22:54:00;;;;;;;3.50;3.20;;;17.40;99.90;;;;;;10431773;28;20217;-83
2021/08/27 22:59:03;;;;;;;3.50;3.13;;;17.40;99.90;;;;;;10449551;28;20247;-83
2021/08/27 23:04:06;;;;;;;3.20;2.90;;;17.40;99.90;;;;;;10449169;28;20235;-83
2021/08/27 23:09:08;;;;;;;2.80;2.60;;;17.50;99.90;;;;;;10467202;28;20671;-83
2021/08/27 23:14:11;;;;;;;2.83;2.67;;;17.50;99.90;;;;;;10433172;28;20231;-83
2021/08/27 23:19:14;;;;;;;3.00;2.80;;;17.50;99.90;;;;;;10468097;28;20260;-83
2021/08/27 23:24:16;;;;;;;3.20;2.90;;;17.50;99.90;;;;;;10450189;28;20239;-83
2021/08/27 23:29:20;;;;;;;3.10;2.80;;;17.50;99.90;;;;;;10450374;28;20224;-83
2021/08/27 23:34:22;;;;;;;3.00;2.80;;;17.50;99.90;;;;;;10450919;28;20281;-83
2021/08/27 23:39:24;;;;;;;3.47;2.37;;;17.50;99.90;;;;;;10436455;28;20597;-83
2021/08/27 23:44:27;;;;;;;3.00;2.60;;;17.50;99.90;;;;;;10462172;28;20739;-82
2021/08/27 23:49:29;;;;;;;3.07;2.87;;;17.50;99.90;;;;;;10457709;28;20208;-83
2021/08/27 23:54:31;;;;;;;3.03;2.83;;;17.50;99.90;;;;;;10456605;28;20213;-82
2021/08/27 23:59:35;;;;;;;3.43;3.23;;;17.50;99.90;;;;;;10440468;28;20193;-82
